Time;durP1;ratioP1;P1;durP2;ratioP2;P2;SDS_P1;SDS_P2;PMS_P1;PMS_P2;Temp;Humidity;BMP_temperature;BMP_pressure;BME280_temperature;BME280_humidity;BME280_pressure;Samples;Min_cycle;Max_cycle;Signal;HPM_P1;HPM_P2
2022/02/25 00:01:30;;;;;;;46.33;25.23;;;;;;;;;;10444546;28;20439;-76
2022/02/25 00:06:30;;;;;;;46.63;22.52;;;;;;;;;;10445630;28;20562;-72
2022/02/25 00:11:30;;;;;;;47.35;19.77;;;;;;;;;;10413358;28;20029;-71
2022/02/25 00:16:30;;;;;;;30.95;19.40;;;;;;;;;;10403432;28;20025;-72
2022/02/25 00:21:31;;;;;;;40.33;20.27;;;;;;;;;;10419861;28;20033;-76
2022/02/25 00:26:31;;;;;;;49.97;19.58;;;;;;;;;;10404164;28;20037;-75
2022/02/25 00:31:32;;;;;;;36.55;18.88;;;;;;;;;;10420336;28;20604;-71
2022/02/25 00:36:32;;;;;;;33.72;18.45;;;;;;;;;;10403996;28;20064;-72
2022/02/25 00:41:33;;;;;;;36.30;18.17;;;;;;;;;;10403029;28;20025;-71
2022/02/25 00:46:33;;;;;;;30.85;18.50;;;;;;;;;;10403607;28;20051;-72
2022/02/25 00:51:33;;;;;;;32.97;16.02;;;;;;;;;;10420429;28;20036;-72
2022/02/25 00:56:33;;;;;;;35.92;16.88;;;;;;;;;;10419444;28;20030;-72
2022/02/25 01:06:42;;;;;;;20.90;11.05;;;;;;;;;;10273833;28;20433;-73
2022/02/25 01:11:42;;;;;;;13.98;7.50;;;;;;;;;;10281313;28;20110;-73
2022/02/25 01:16:42;;;;;;;8.85;4.95;;;;;;;;;;10281849;28;20469;-74
2022/02/25 01:21:43;;;;;;;6.30;4.43;;;;;;;;;;10282937;28;20040;-72
2022/02/25 01:26:43;;;;;;;8.03;5.40;;;;;;;;;;10282668;28;20027;-73
2022/02/25 01:31:45;;;;;;;5.13;4.40;;;;;;;;;;10281366;28;20019;-73
2022/02/25 01:36:45;;;;;;;9.65;6.18;;;;;;;;;;10281526;28;20065;-77
2022/02/25 01:41:45;;;;;;;11.10;5.97;;;;;;;;;;10281026;28;20089;-80
2022/02/25 01:46:47;;;;;;;12.05;6.90;;;;;;;;;;10281264;28;20015;-72
2022/02/25 01:51:48;;;;;;;8.98;6.22;;;;;;;;;;10280976;28;20027;-72
2022/02/25 01:56:48;;;;;;;10.48;6.47;;;;;;;;;;10280292;28;20027;-73
2022/02/25 02:01:49;;;;;;;13.55;6.00;;;;;;;;;;10280238;28;20031;-72
2022/02/25 02:06:49;;;;;;;6.73;6.03;;;;;;;;;;10264538;28;20046;-72
2022/02/25 02:11:51;;;;;;;12.48;5.25;;;;;;;;;;10281203;28;20483;-72
2022/02/25 02:16:52;;;;;;;14.63;5.55;;;;;;;;;;10280334;28;20505;-72
2022/02/25 02:21:54;;;;;;;10.70;6.55;;;;;;;;;;10280091;28;20066;-71
2022/02/25 02:26:56;;;;;;;13.48;7.78;;;;;;;;;;10261542;28;20023;-71
2022/02/25 02:31:56;;;;;;;10.30;6.28;;;;;;;;;;10241009;28;20023;-75
2022/02/25 02:36:57;;;;;;;9.63;5.32;;;;;;;;;;10255929;28;20020;-74
2022/02/25 02:41:57;;;;;;;15.50;6.00;;;;;;;;;;10240348;29;20123;-72
2022/02/25 02:46:57;;;;;;;9.60;6.90;;;;;;;;;;10240340;28;20194;-72
2022/02/25 02:51:57;;;;;;;8.27;6.53;;;;;;;;;;10240650;28;20023;-73
2022/02/25 02:56:58;;;;;;;9.00;6.23;;;;;;;;;;10255444;28;20030;-73
2022/02/25 03:01:58;;;;;;;11.85;6.82;;;;;;;;;;10254729;28;20487;-75
2022/02/25 03:06:58;;;;;;;7.95;6.65;;;;;;;;;;10239621;28;20023;-74
2022/02/25 03:11:59;;;;;;;9.05;6.35;;;;;;;;;;10240384;28;20491;-73
2022/02/25 03:16:59;;;;;;;7.10;5.80;;;;;;;;;;10254575;28;20469;-72
2022/02/25 03:21:59;;;;;;;8.63;5.80;;;;;;;;;;10254477;28;20519;-72
2022/02/25 03:27:00;;;;;;;8.63;6.53;;;;;;;;;;10222643;29;20111;-72
2022/02/25 03:32:00;;;;;;;9.50;5.85;;;;;;;;;;10237356;28;20042;-72
2022/02/25 03:37:00;;;;;;;11.70;7.35;;;;;;;;;;10239447;28;20050;-72
2022/02/25 03:42:01;;;;;;;10.23;9.43;;;;;;;;;;10237974;28;20027;-71
2022/02/25 03:47:01;;;;;;;13.70;8.87;;;;;;;;;;10241298;29;20042;-72
2022/02/25 03:52:02;;;;;;;9.60;7.07;;;;;;;;;;10237807;29;20270;-72
2022/02/25 03:57:02;;;;;;;16.75;8.68;;;;;;;;;;10237742;29;20540;-72
2022/02/25 04:02:03;;;;;;;15.00;8.40;;;;;;;;;;10236879;29;20074;-73
2022/02/25 04:07:04;;;;;;;19.73;8.85;;;;;;;;;;10238251;29;20047;-73
2022/02/25 04:12:04;;;;;;;11.43;8.25;;;;;;;;;;10237794;28;20027;-73
2022/02/25 04:17:05;;;;;;;10.13;9.10;;;;;;;;;;10237227;29;20548;-72
2022/02/25 04:22:05;;;;;;;9.73;6.50;;;;;;;;;;10253663;28;20027;-76
2022/02/25 04:27:05;;;;;;;11.98;9.75;;;;;;;;;;10238517;28;20019;-73
2022/02/25 04:32:06;;;;;;;20.60;12.03;;;;;;;;;;10254137;28;20043;-72
2022/02/25 04:37:06;;;;;;;32.60;13.88;;;;;;;;;;10274904;28;20034;-72
2022/02/25 04:42:07;;;;;;;34.30;13.05;;;;;;;;;;10272115;28;20057;-72
2022/02/25 04:47:07;;;;;;;52.47;17.20;;;;;;;;;;10249687;28;20023;-72
2022/02/25 04:52:09;;;;;;;27.73;15.65;;;;;;;;;;10283662;28;20034;-71
2022/02/25 04:57:09;;;;;;;37.40;20.40;;;;;;;;;;10246520;28;20027;-72
2022/02/25 05:02:09;;;;;;;33.35;15.20;;;;;;;;;;10242718;28;20081;-72
2022/02/25 05:07:09;;;;;;;39.22;14.07;;;;;;;;;;10260605;28;20034;-72
2022/02/25 05:12:10;;;;;;;29.90;13.02;;;;;;;;;;10281533;28;20031;-81
2022/02/25 05:22:29;;;;;;;27.67;14.85;;;;;;;;;;10283069;28;20023;-75
2022/02/25 05:27:29;;;;;;;24.35;13.88;;;;;;;;;;10282437;28;20027;-75
2022/02/25 05:32:30;;;;;;;19.88;11.43;;;;;;;;;;10282132;28;20027;-73
2022/02/25 05:37:30;;;;;;;8.70;6.67;;;;;;;;;;10280982;28;20054;-75
2022/02/25 05:42:30;;;;;;;18.70;7.13;;;;;;;;;;10279480;28;20483;-77
2022/02/25 05:47:31;;;;;;;11.40;6.10;;;;;;;;;;10280975;28;20034;-77
2022/02/25 05:52:31;;;;;;;9.07;6.55;;;;;;;;;;10280720;28;20263;-75
2022/02/25 05:57:31;;;;;;;20.73;6.90;;;;;;;;;;10280330;28;20131;-79
2022/02/25 06:02:32;;;;;;;15.83;7.27;;;;;;;;;;10281221;28;20310;-74
2022/02/25 06:07:33;;;;;;;9.55;6.22;;;;;;;;;;10280083;28;20545;-77
2022/02/25 06:12:33;;;;;;;6.90;4.72;;;;;;;;;;10279063;28;20026;-73
2022/02/25 06:17:41;;;;;;;9.27;4.47;;;;;;;;;;10281153;28;20031;-75
2022/02/25 06:22:41;;;;;;;28.90;13.80;;;;;;;;;;10279354;28;20970;-74
2022/02/25 06:27:42;;;;;;;16.30;7.00;;;;;;;;;;10279462;28;20076;-74
2022/02/25 06:32:43;;;;;;;29.08;11.35;;;;;;;;;;10280557;28;20030;-75
2022/02/25 06:37:43;;;;;;;34.10;13.27;;;;;;;;;;10279243;28;20084;-76
2022/02/25 06:42:43;;;;;;;23.43;11.20;;;;;;;;;;10278067;28;20406;-75
2022/02/25 06:47:44;;;;;;;19.73;9.13;;;;;;;;;;10278325;28;20070;-74
2022/02/25 06:52:44;;;;;;;14.93;7.47;;;;;;;;;;10278789;28;20027;-75
2022/02/25 06:57:45;;;;;;;14.90;7.25;;;;;;;;;;10278315;28;20027;-75
2022/02/25 07:02:46;;;;;;;17.73;7.40;;;;;;;;;;10278531;28;20055;-74
2022/02/25 07:07:48;;;;;;;30.65;10.90;;;;;;;;;;10277780;28;20119;-75
2022/02/25 07:12:48;;;;;;;44.97;16.63;;;;;;;;;;10278097;28;20034;-74
2022/02/25 07:17:48;;;;;;;38.97;18.83;;;;;;;;;;10279478;28;20038;-74
2022/02/25 07:22:49;;;;;;;48.35;22.48;;;;;;;;;;10277796;28;20406;-74
2022/02/25 07:27:49;;;;;;;51.47;26.50;;;;;;;;;;10239419;28;20414;-75
2022/02/25 07:32:50;;;;;;;51.67;23.40;;;;;;;;;;10238807;29;20031;-75
2022/02/25 07:37:50;;;;;;;50.90;25.53;;;;;;;;;;10239591;28;20015;-79
2022/02/25 07:42:50;;;;;;;53.03;26.30;;;;;;;;;;10237673;28;20275;-75
2022/02/25 07:47:51;;;;;;;51.33;24.80;;;;;;;;;;10237332;29;20023;-72
2022/02/25 07:52:52;;;;;;;51.60;24.43;;;;;;;;;;10237437;29;20077;-73
2022/02/25 07:57:53;;;;;;;52.80;23.55;;;;;;;;;;10237485;29;20350;-80
2022/02/25 08:02:53;;;;;;;74.53;32.37;;;;;;;;;;10236680;29;20101;-77
2022/02/25 08:07:54;;;;;;;58.70;29.27;;;;;;;;;;10236769;29;20019;-75
2022/02/25 08:12:54;;;;;;;76.80;30.77;;;;;;;;;;10236956;28;20039;-78
2022/02/25 08:17:54;;;;;;;62.23;29.43;;;;;;;;;;10235653;29;20050;-75
2022/02/25 08:23:00;;;;;;;74.00;32.33;;;;;;;;;;10235951;29;20271;-78
2022/02/25 08:28:00;;;;;;;68.57;31.38;;;;;;;;;;10236417;28;20263;-76
2022/02/25 08:33:02;;;;;;;54.33;28.27;;;;;;;;;;10235911;28;20030;-73
2022/02/25 08:38:03;;;;;;;52.92;25.73;;;;;;;;;;10236187;28;20024;-72
2022/02/25 08:43:03;;;;;;;54.90;26.63;;;;;;;;;;10236074;28;20027;-72
2022/02/25 08:48:04;;;;;;;48.50;21.38;;;;;;;;;;10235666;28;20012;-77
2022/02/25 08:53:04;;;;;;;51.42;23.42;;;;;;;;;;10235980;29;20114;-74
2022/02/25 08:58:05;;;;;;;51.58;24.15;;;;;;;;;;10237284;28;20028;-73
2022/02/25 09:03:06;;;;;;;42.80;20.80;;;;;;;;;;10235155;28;20519;-73
2022/02/25 09:08:06;;;;;;;44.77;21.17;;;;;;;;;;10235492;29;20015;-77
2022/02/25 09:13:07;;;;;;;41.47;20.98;;;;;;;;;;10236819;28;20271;-73
2022/02/25 09:18:10;;;;;;;51.47;21.00;;;;;;;;;;10234929;28;20593;-74
2022/02/25 09:23:11;;;;;;;41.28;19.92;;;;;;;;;;10234951;28;20019;-74
2022/02/25 09:28:12;;;;;;;45.70;17.52;;;;;;;;;;10235014;28;20498;-72
2022/02/25 09:33:13;;;;;;;29.98;15.95;;;;;;;;;;10241175;28;20089;-73
2022/02/25 09:38:13;;;;;;;21.42;12.73;;;;;;;;;;10242608;28;20039;-76
2022/02/25 09:43:13;;;;;;;26.75;13.10;;;;;;;;;;10241288;29;20027;-72
2022/02/25 09:48:14;;;;;;;28.77;12.07;;;;;;;;;;10242301;28;20570;-75
2022/02/25 09:53:14;;;;;;;17.30;9.55;;;;;;;;;;10240210;28;20023;-73
2022/02/25 09:58:15;;;;;;;23.25;10.48;;;;;;;;;;10256460;28;20081;-74
2022/02/25 10:03:16;;;;;;;18.80;9.97;;;;;;;;;;10240290;28;20087;-75
2022/02/25 10:08:18;;;;;;;18.13;8.60;;;;;;;;;;10224383;29;20047;-75
2022/02/25 10:13:20;;;;;;;23.33;8.20;;;;;;;;;;10239809;29;20050;-76
2022/02/25 10:18:25;;;;;;;13.43;6.03;;;;;;;;;;10239737;29;20225;-71
2022/02/25 10:23:30;;;;;;;15.95;7.20;;;;;;;;;;10239572;29;20534;-77
2022/02/25 10:28:31;;;;;;;14.05;6.07;;;;;;;;;;10240607;28;20541;-75
2022/02/25 10:33:32;;;;;;;14.82;5.70;;;;;;;;;;10239380;29;20054;-75
2022/02/25 10:38:36;;;;;;;15.93;6.00;;;;;;;;;;10239567;29;20020;-79
2022/02/25 10:43:36;;;;;;;9.27;5.50;;;;;;;;;;10238533;28;20147;-75
2022/02/25 10:48:36;;;;;;;13.10;5.97;;;;;;;;;;10240366;28;20485;-75
2022/02/25 10:53:47;;;;;;;22.25;7.45;;;;;;;;;;10243381;28;20033;-74
2022/02/25 10:58:49;;;;;;;10.10;5.35;;;;;;;;;;10238681;29;20019;-74
2022/02/25 11:04:00;;;;;;;18.65;6.85;;;;;;;;;;10238244;29;20075;-73
2022/02/25 11:09:01;;;;;;;16.73;7.30;;;;;;;;;;10238545;29;20114;-79
2022/02/25 11:14:05;;;;;;;12.18;5.97;;;;;;;;;;10238628;29;20031;-77
2022/02/25 11:19:06;;;;;;;13.45;7.13;;;;;;;;;;10238482;28;20077;-74
2022/02/25 11:24:06;;;;;;;8.48;5.05;;;;;;;;;;10238655;29;20633;-74
2022/02/25 11:29:11;;;;;;;8.65;5.43;;;;;;;;;;10222448;29;20080;-71
2022/02/25 11:34:13;;;;;;;7.85;4.50;;;;;;;;;;10221835;28;20108;-74
2022/02/25 11:39:23;;;;;;;18.92;5.57;;;;;;;;;;10237542;29;20047;-74
2022/02/25 11:44:27;;;;;;;9.00;5.20;;;;;;;;;;10237438;29;20027;-74
2022/02/25 11:49:29;;;;;;;10.90;4.72;;;;;;;;;;10238711;28;20066;-74
2022/02/25 11:54:40;;;;;;;18.25;5.68;;;;;;;;;;10237027;29;20023;-74
2022/02/25 11:59:41;;;;;;;9.43;6.22;;;;;;;;;;10236957;29;20110;-73
2022/02/25 12:04:44;;;;;;;13.50;6.55;;;;;;;;;;10237086;28;20116;-74
2022/02/25 12:09:49;;;;;;;12.98;7.40;;;;;;;;;;10238623;28;20053;-74
2022/02/25 12:14:58;;;;;;;16.05;7.53;;;;;;;;;;10236811;29;20498;-74
2022/02/25 12:20:06;;;;;;;15.25;7.50;;;;;;;;;;10236545;29;20042;-76
2022/02/25 12:25:10;;;;;;;19.05;7.43;;;;;;;;;;10236434;29;20092;-73
2022/02/25 12:30:29;;;;;;;22.13;7.35;;;;;;;;;;10236474;28;20043;-74
2022/02/25 12:35:45;;;;;;;11.40;6.20;;;;;;;;;;10236461;29;20027;-74
2022/02/25 12:40:46;;;;;;;14.70;6.72;;;;;;;;;;10220344;29;20039;-75
2022/02/25 12:45:46;;;;;;;13.43;6.67;;;;;;;;;;10236480;29;20031;-75
2022/02/25 12:50:47;;;;;;;13.65;6.63;;;;;;;;;;10237266;28;20026;-75
2022/02/25 12:55:55;;;;;;;10.68;6.05;;;;;;;;;;10236021;29;20034;-73
2022/02/25 13:00:55;;;;;;;15.47;5.47;;;;;;;;;;10241322;28;20026;-73
2022/02/25 13:05:56;;;;;;;18.23;6.65;;;;;;;;;;10277873;28;20063;-73
2022/02/25 13:10:57;;;;;;;12.00;6.30;;;;;;;;;;10282019;28;20022;-72
2022/02/25 13:16:05;;;;;;;17.02;6.22;;;;;;;;;;10243058;28;20124;-72
2022/02/25 13:21:06;;;;;;;11.43;5.47;;;;;;;;;;10280463;28;20030;-74
2022/02/25 13:26:07;;;;;;;13.77;6.30;;;;;;;;;;10259868;28;20027;-73
2022/02/25 13:31:07;;;;;;;8.77;4.82;;;;;;;;;;10243366;28;20031;-76
2022/02/25 13:36:09;;;;;;;11.32;5.93;;;;;;;;;;10241998;28;20027;-73
2022/02/25 13:41:10;;;;;;;11.38;5.20;;;;;;;;;;10243082;28;20031;-76
2022/02/25 13:46:17;;;;;;;9.27;5.43;;;;;;;;;;10240821;28;20514;-78
2022/02/25 13:56:39;;;;;;;15.38;5.88;;;;;;;;;;10281677;28;20018;-77
2022/02/25 14:01:40;;;;;;;13.38;5.75;;;;;;;;;;10280348;28;20031;-76
2022/02/25 14:06:55;;;;;;;13.75;6.32;;;;;;;;;;10281852;28;20567;-73
2022/02/25 14:12:15;;;;;;;12.63;5.97;;;;;;;;;;10280180;28;20086;-74
2022/02/25 14:17:16;;;;;;;25.33;5.60;;;;;;;;;;10280283;28;20031;-74
2022/02/25 14:22:17;;;;;;;9.52;5.63;;;;;;;;;;10280545;28;20027;-75
2022/02/25 14:27:19;;;;;;;9.40;5.30;;;;;;;;;;10279851;28;20035;-72
2022/02/25 14:32:19;;;;;;;22.77;5.85;;;;;;;;;;10279394;28;20147;-74
2022/02/25 14:37:24;;;;;;;20.77;6.50;;;;;;;;;;10279188;28;20471;-74
2022/02/25 14:42:25;;;;;;;15.02;5.25;;;;;;;;;;10278978;28;20027;-73
2022/02/25 14:47:26;;;;;;;13.55;6.00;;;;;;;;;;10278251;28;20061;-73
2022/02/25 14:52:28;;;;;;;13.13;5.80;;;;;;;;;;10278558;28;20118;-74
2022/02/25 14:57:29;;;;;;;11.85;6.03;;;;;;;;;;10282723;28;20030;-76
2022/02/25 15:02:30;;;;;;;11.48;5.72;;;;;;;;;;10278414;28;20524;-74
2022/02/25 15:07:30;;;;;;;11.93;5.95;;;;;;;;;;10278606;28;20039;-73
2022/02/25 15:12:32;;;;;;;15.30;5.82;;;;;;;;;;10275573;28;20041;-74
2022/02/25 15:17:32;;;;;;;13.57;5.50;;;;;;;;;;10253775;28;20031;-73
2022/02/25 15:22:33;;;;;;;14.25;6.60;;;;;;;;;;10238427;29;20509;-73
2022/02/25 15:27:33;;;;;;;12.50;5.50;;;;;;;;;;10253527;28;20431;-73
2022/02/25 15:32:33;;;;;;;11.65;6.07;;;;;;;;;;10253291;28;20099;-80
2022/02/25 15:37:34;;;;;;;14.70;6.15;;;;;;;;;;10276924;28;20019;-73
2022/02/25 15:42:34;;;;;;;13.95;7.30;;;;;;;;;;10276748;28;20030;-73
2022/02/25 15:47:34;;;;;;;16.63;9.67;;;;;;;;;;10276739;28;20122;-73
2022/02/25 15:52:35;;;;;;;21.40;10.73;;;;;;;;;;10277361;28;20041;-73
2022/02/25 15:57:35;;;;;;;24.50;8.82;;;;;;;;;;10276704;28;20022;-79
2022/02/25 16:02:35;;;;;;;26.77;10.77;;;;;;;;;;10278107;28;20093;-75
2022/02/25 16:07:36;;;;;;;14.63;8.57;;;;;;;;;;10276567;28;20041;-78
2022/02/25 16:12:36;;;;;;;18.73;8.37;;;;;;;;;;10276710;28;20286;-76
2022/02/25 16:17:36;;;;;;;23.50;8.15;;;;;;;;;;10276563;28;20023;-73
2022/02/25 16:22:37;;;;;;;21.30;8.80;;;;;;;;;;10276160;28;20037;-74
2022/02/25 16:27:37;;;;;;;36.17;8.07;;;;;;;;;;10275163;28;20057;-74
2022/02/25 16:32:39;;;;;;;14.13;7.40;;;;;;;;;;10275880;28;20033;-79
2022/02/25 16:37:40;;;;;;;23.92;9.93;;;;;;;;;;10278437;28;20274;-75
2022/02/25 16:42:40;;;;;;;24.85;11.30;;;;;;;;;;10280722;28;20030;-73
2022/02/25 16:47:41;;;;;;;28.07;10.83;;;;;;;;;;10260564;28;20554;-73
2022/02/25 16:52:42;;;;;;;20.00;9.43;;;;;;;;;;10242575;28;20370;-73
2022/02/25 16:57:42;;;;;;;20.67;8.00;;;;;;;;;;10259193;28;20019;-74
2022/02/25 17:02:42;;;;;;;21.80;9.93;;;;;;;;;;10258794;28;20372;-78
2022/02/25 17:07:46;;;;;;;32.33;10.77;;;;;;;;;;10261426;28;20029;-78
2022/02/25 17:12:46;;;;;;;27.73;12.07;;;;;;;;;;10251229;28;20562;-78
2022/02/25 17:17:48;;;;;;;31.85;12.73;;;;;;;;;;10262908;28;20241;-73
2022/02/25 17:22:51;;;;;;;48.47;13.02;;;;;;;;;;10266235;28;20039;-74
2022/02/25 17:27:51;;;;;;;35.47;13.70;;;;;;;;;;10258987;28;20490;-73
2022/02/25 17:32:52;;;;;;;43.93;15.27;;;;;;;;;;10281427;28;20084;-75
2022/02/25 17:37:52;;;;;;;34.38;15.10;;;;;;;;;;10281599;28;20023;-79
2022/02/25 17:42:52;;;;;;;52.40;16.10;;;;;;;;;;10280327;28;20076;-75
2022/02/25 17:47:53;;;;;;;42.03;15.70;;;;;;;;;;10271461;28;20089;-74
2022/02/25 17:52:54;;;;;;;72.53;18.45;;;;;;;;;;10240020;28;20460;-77
2022/02/25 17:57:54;;;;;;;32.87;15.00;;;;;;;;;;10241391;28;20027;-73
2022/02/25 18:02:54;;;;;;;40.03;15.10;;;;;;;;;;10239615;28;20061;-77
2022/02/25 18:07:55;;;;;;;43.42;16.10;;;;;;;;;;10240623;28;20023;-75
2022/02/25 18:12:55;;;;;;;38.93;13.03;;;;;;;;;;10239535;28;20110;-76
2022/02/25 18:17:55;;;;;;;21.50;9.90;;;;;;;;;;10238070;29;20279;-78
2022/02/25 18:22:56;;;;;;;29.55;10.98;;;;;;;;;;10239078;28;20019;-75
2022/02/25 18:27:57;;;;;;;26.70;10.38;;;;;;;;;;10245142;28;20492;-74
2022/02/25 18:32:59;;;;;;;24.50;10.60;;;;;;;;;;10244009;28;20104;-74
2022/02/25 18:37:59;;;;;;;32.15;11.50;;;;;;;;;;10257096;28;20023;-78
2022/02/25 18:42:59;;;;;;;26.97;12.10;;;;;;;;;;10278441;28;20563;-74
2022/02/25 18:48:00;;;;;;;26.88;11.25;;;;;;;;;;10278434;28;20266;-77
2022/02/25 18:53:00;;;;;;;33.85;12.45;;;;;;;;;;10279009;28;20505;-74
2022/02/25 18:58:00;;;;;;;38.05;14.48;;;;;;;;;;10275705;28;20754;-75
2022/02/25 19:03:03;;;;;;;43.83;10.87;;;;;;;;;;10270813;28;20057;-73
2022/02/25 19:08:04;;;;;;;36.65;11.80;;;;;;;;;;10277596;28;20054;-76
2022/02/25 19:13:04;;;;;;;30.27;11.05;;;;;;;;;;10274004;28;20118;-73
2022/02/25 19:18:05;;;;;;;22.67;11.70;;;;;;;;;;10237491;28;20443;-73
2022/02/25 19:23:05;;;;;;;25.25;11.65;;;;;;;;;;10237468;28;20270;-74
2022/02/25 19:28:05;;;;;;;27.33;10.10;;;;;;;;;;10236115;28;20511;-74
2022/02/25 19:33:06;;;;;;;25.83;10.90;;;;;;;;;;10236249;28;20520;-73
2022/02/25 19:38:06;;;;;;;38.78;11.18;;;;;;;;;;10237566;28;20023;-78
2022/02/25 19:43:06;;;;;;;29.63;13.60;;;;;;;;;;10237082;28;20047;-75
2022/02/25 19:48:07;;;;;;;23.87;12.00;;;;;;;;;;10237846;28;20411;-74
2022/02/25 19:53:07;;;;;;;29.05;12.85;;;;;;;;;;10237918;28;20507;-73
2022/02/25 19:58:07;;;;;;;33.17;11.38;;;;;;;;;;10238485;28;20104;-75
2022/02/25 20:03:07;;;;;;;26.87;11.90;;;;;;;;;;10236816;28;20066;-73
2022/02/25 20:08:08;;;;;;;27.98;11.15;;;;;;;;;;10405684;28;20032;-78
2022/02/25 20:13:09;;;;;;;39.73;12.57;;;;;;;;;;10271967;28;20031;-72
2022/02/25 20:18:09;;;;;;;34.10;12.85;;;;;;;;;;10241352;28;20164;-77
2022/02/25 20:23:09;;;;;;;32.03;12.93;;;;;;;;;;10236125;29;20156;-73
2022/02/25 20:28:10;;;;;;;26.40;11.40;;;;;;;;;;10238451;28;20627;-81
2022/02/25 20:33:11;;;;;;;22.95;12.45;;;;;;;;;;10235823;28;20024;-74
2022/02/25 20:38:11;;;;;;;23.70;11.98;;;;;;;;;;10237390;28;20414;-74
2022/02/25 20:43:11;;;;;;;36.55;13.23;;;;;;;;;;10276804;28;20483;-73
2022/02/25 20:48:12;;;;;;;28.77;14.95;;;;;;;;;;10254776;28;20035;-74
2022/02/25 20:53:12;;;;;;;30.40;15.25;;;;;;;;;;10454877;28;20028;-75
2022/02/25 20:58:13;;;;;;;38.75;14.75;;;;;;;;;;10427034;28;20019;-74
2022/02/25 21:03:14;;;;;;;35.60;16.45;;;;;;;;;;10274716;28;20062;-73
2022/02/25 21:08:14;;;;;;;37.90;13.97;;;;;;;;;;10277354;28;20462;-73
2022/02/25 21:13:15;;;;;;;32.65;12.38;;;;;;;;;;10243312;28;20035;-76
2022/02/25 21:18:17;;;;;;;38.13;13.98;;;;;;;;;;10235304;28;20023;-73
2022/02/25 21:23:17;;;;;;;29.35;11.55;;;;;;;;;;10237423;28;20062;-77
2022/02/25 21:28:17;;;;;;;25.50;10.85;;;;;;;;;;10241258;28;20139;-73
2022/02/25 21:33:18;;;;;;;34.20;13.30;;;;;;;;;;10241188;28;20031;-77
2022/02/25 21:38:19;;;;;;;26.05;13.63;;;;;;;;;;10240583;28;20054;-73
2022/02/25 21:43:19;;;;;;;36.47;15.60;;;;;;;;;;10242418;28;20035;-73
2022/02/25 21:48:20;;;;;;;41.25;14.70;;;;;;;;;;10240496;28;20407;-77
2022/02/25 21:53:20;;;;;;;40.50;13.63;;;;;;;;;;10240490;28;20417;-79
2022/02/25 21:58:21;;;;;;;25.63;10.90;;;;;;;;;;10246080;28;20049;-75
2022/02/25 22:03:22;;;;;;;19.15;10.63;;;;;;;;;;10278596;28;20147;-73
2022/02/25 22:08:22;;;;;;;32.05;12.45;;;;;;;;;;10298510;23;20059;-73
2022/02/25 22:13:22;;;;;;;31.10;10.85;;;;;;;;;;10260034;28;20122;-79
2022/02/25 22:18:23;;;;;;;32.10;12.65;;;;;;;;;;10240004;29;20024;-73
2022/02/25 22:23:23;;;;;;;34.65;12.40;;;;;;;;;;10239348;28;20077;-72
2022/02/25 22:28:23;;;;;;;28.15;10.50;;;;;;;;;;10239575;28;20046;-73
2022/02/25 22:33:24;;;;;;;27.70;11.70;;;;;;;;;;10278845;28;20030;-77
2022/02/25 22:38:25;;;;;;;21.25;10.40;;;;;;;;;;10277666;28;20054;-76
2022/02/25 22:43:25;;;;;;;35.90;11.68;;;;;;;;;;10279607;28;20029;-78
2022/02/25 22:48:26;;;;;;;25.60;12.32;;;;;;;;;;10278041;28;20065;-73
2022/02/25 23:04:03;;;;;;;27.08;11.05;;;;;;;;;;10244545;28;20050;-76
2022/02/25 23:09:04;;;;;;;27.13;12.15;;;;;;;;;;10255393;28;20516;-75
2022/02/25 23:14:05;;;;;;;30.10;14.77;;;;;;;;;;10238119;28;20495;-75
2022/02/25 23:19:05;;;;;;;27.85;11.48;;;;;;;;;;10238766;29;20020;-73
2022/02/25 23:24:06;;;;;;;31.43;13.33;;;;;;;;;;10238273;28;20416;-73
2022/02/25 23:29:06;;;;;;;30.13;13.85;;;;;;;;;;10238370;29;20482;-73
2022/02/25 23:34:06;;;;;;;30.27;14.75;;;;;;;;;;10239704;28;20031;-73
2022/02/25 23:39:07;;;;;;;24.50;11.75;;;;;;;;;;10238067;28;20031;-73
2022/02/25 23:44:07;;;;;;;33.57;14.60;;;;;;;;;;10238093;28;20122;-72
2022/02/25 23:49:08;;;;;;;31.63;13.65;;;;;;;;;;10238952;28;20039;-76
2022/02/25 23:54:08;;;;;;;27.08;12.82;;;;;;;;;;10237383;28;20069;-75
2022/02/25 23:59:09;;;;;;;21.20;11.30;;;;;;;;;;10238971;28;20134;-78
